Aeroporto :







RITROVATECI SU...

 
LOGIN :

Iscrizione | Disclaimer

   EN    FR    IT 

 









Sommario :    VFR   VFR Marginale   IFR   IFR Intensivo   IFR Molto Intensivo
Visibilità : 
Base nubi : 
>= 8 km
>= 3000ft
5 / 8 km
1000 / 3000 ft
1500m / 5 km
500 / 1000 ft
800 / 1500m
200 / 500 ft
< 800m
< 200 ft
Simboli :   Temporali  Nebbia  Neve Forte  Precipitazioni Forti  Vento > 20 kt






- Altitudine del aeroporto : 241 ft
- Codice IATA : CEF


KCEF - Westover ARB/Metropolitan

ULTIMO METAR :
  • 211556Z 04004KT 10SM CLR M05/M20 A3047 RMK AO2A SLP328 T10521197

METARs OBSOLETI :
  • 211456Z COR 01005KT 10SM CLR M06/M18 A3048 RMK AO2A SLP332 T10651179 51007 COR 1514
  • 211356Z 02005KT 10SM CLR M08/M16 A3048 RMK AO2A SLP332 T10821161

TAF TAF KCEF
Valido dal 21 a 11 ore il 22 a 17 ore UTC


211105Z 2111/2217 VRB06KT 9999 SKC QNH3036INS
BECMG 2118/2119 25009KT 9999 FEW060 QNH3032INS
BECMG 2121/2122 VRB06KT 9999 SKC 510103 QNH3013INS TX00/2120Z TNM14/2112Z



MetMap, La meteo Aeronautica in un colpo d'occhio ! - Copyright ORBIFLY Dicembre 2007 - Disclaimer

ORBIFLY MET'MAP TEAM :

Programmazione e sviluppo : Alexandra Zaïnal
Concezione : Baudouin d'Aumeries
Aiuto per la programmazione : Marc-Olivier Méhu
Supporto tecnico e logistico : Manuel Goepfert
Aiuto per la traduzione : Arnaldo La Scala

Contatto : metmap@orbifly.com




FONTI E CREDITI :

   NOAA